createdAt,value
2022-08-12T00:08:28.842Z,7.67
2022-08-12T00:11:21.650Z,6.97
2022-08-12T00:14:07.069Z,6.83
2022-08-12T00:16:52.388Z,10.90
2022-08-12T00:19:38.085Z,5.77
2022-08-12T00:22:24.136Z,6.80
2022-08-12T00:25:15.874Z,6.23
2022-08-12T00:28:02.724Z,6.83
2022-08-12T00:30:48.122Z,6.03
2022-08-12T00:33:51.784Z,7.97
2022-08-12T00:36:46.242Z,7.83
2022-08-12T00:39:35.711Z,15.47
2022-08-12T00:42:12.370Z,5.47
2022-08-12T00:44:44.341Z,7.10
2022-08-12T00:47:25.457Z,6.40
2022-08-12T00:49:55.785Z,5.73
2022-08-12T00:52:24.591Z,6.20
2022-08-12T00:54:57.477Z,6.97
2022-08-12T00:57:30.073Z,5.07
2022-08-12T00:59:59.701Z,5.83
2022-08-12T01:02:32.570Z,12.33
2022-08-12T01:05:27.149Z,3.83
2022-08-12T01:08:13.846Z,5.40
2022-08-12T01:11:02.142Z,5.73
2022-08-12T01:13:31.332Z,10.53
2022-08-12T01:16:00.036Z,5.47
2022-08-12T01:18:30.752Z,4.53
2022-08-12T01:21:12.907Z,6.10
2022-08-12T01:24:30.004Z,6.73
2022-08-12T01:26:55.972Z,4.63
2022-08-12T01:29:33.271Z,5.27
2022-08-12T01:32:08.727Z,13.47
2022-08-12T01:34:39.711Z,4.57
2022-08-12T01:37:09.077Z,9.47
2022-08-12T01:40:35.888Z,6.87
2022-08-12T01:42:51.977Z,7.77
2022-08-12T01:45:24.754Z,7.23
2022-08-12T01:47:54.904Z,5.93
2022-08-12T01:50:54.596Z,5.50
2022-08-12T01:53:50.416Z,5.37
2022-08-12T01:56:22.098Z,5.47
2022-08-12T01:59:12.383Z,5.53
2022-08-12T02:01:41.706Z,6.17
2022-08-12T02:04:33.325Z,5.50
2022-08-12T02:07:22.100Z,6.47
2022-08-12T02:10:50.058Z,4.30
2022-08-12T02:13:48.297Z,5.10
2022-08-12T02:16:41.481Z,5.20
2022-08-12T02:19:27.100Z,8.00
2022-08-12T02:22:14.601Z,4.23
2022-08-12T02:24:44.140Z,8.20
2022-08-12T02:27:13.793Z,6.50
2022-08-12T02:29:41.118Z,4.70
2022-08-12T02:32:08.789Z,3.67
2022-08-12T02:34:36.036Z,4.77
2022-08-12T02:37:04.013Z,3.67
2022-08-12T02:39:34.017Z,5.30
2022-08-12T02:42:03.711Z,3.50
2022-08-12T02:44:36.296Z,4.23
2022-08-12T02:47:06.395Z,8.83
2022-08-12T02:49:41.482Z,5.03
2022-08-12T02:52:10.277Z,7.97
2022-08-12T02:54:39.408Z,6.27
2022-08-12T02:57:06.429Z,6.37
2022-08-12T02:59:35.727Z,5.47
2022-08-12T03:02:03.675Z,5.53
2022-08-12T03:04:43.655Z,4.60
2022-08-12T03:07:14.514Z,4.53
2022-08-12T03:10:05.160Z,5.20
2022-08-12T03:12:40.085Z,6.27
2022-08-12T03:15:18.441Z,6.67
2022-08-12T03:18:24.184Z,15.30
2022-08-12T03:20:40.388Z,6.63
2022-08-12T03:23:28.662Z,6.27
2022-08-12T03:25:59.530Z,3.87
2022-08-12T03:28:46.838Z,9.73
2022-08-12T03:31:13.989Z,4.60
2022-08-12T03:33:45.592Z,7.07
2022-08-12T03:36:29.892Z,4.27
2022-08-12T03:39:16.000Z,6.33
2022-08-12T03:42:22.226Z,4.60
2022-08-12T03:45:16.552Z,5.53
2022-08-12T03:48:23.983Z,4.83
2022-08-12T03:51:10.730Z,7.17
2022-08-12T03:53:56.444Z,4.03
2022-08-12T03:56:42.016Z,6.07
2022-08-12T03:59:27.655Z,6.70
2022-08-12T04:01:58.293Z,5.27
2022-08-12T04:04:35.612Z,7.97
2022-08-12T04:07:10.268Z,5.00
2022-08-12T04:09:40.443Z,4.53
2022-08-12T04:12:26.890Z,5.33
2022-08-12T04:15:00.763Z,4.83
2022-08-12T04:17:28.783Z,6.67
2022-08-12T04:19:59.869Z,5.50
2022-08-12T04:22:30.384Z,5.80
2022-08-12T04:25:01.430Z,4.10
2022-08-12T04:27:31.468Z,6.00
2022-08-12T04:30:21.409Z,5.43
2022-08-12T04:32:48.250Z,4.93
2022-08-12T04:35:18.651Z,5.53
2022-08-12T04:37:59.527Z,4.87
2022-08-12T04:40:33.185Z,4.53
2022-08-12T04:43:01.675Z,5.53
2022-08-12T04:48:19.508Z,5.87
2022-08-12T04:50:48.186Z,5.60
2022-08-12T04:53:15.304Z,4.47
2022-08-12T04:55:43.141Z,3.97
2022-08-12T04:58:10.597Z,6.60
2022-08-12T05:00:38.337Z,5.63
2022-08-12T05:03:07.221Z,5.37
2022-08-12T05:05:36.311Z,3.47
2022-08-12T05:08:07.646Z,6.70
2022-08-12T05:10:35.669Z,6.00
2022-08-12T05:13:07.492Z,8.17
2022-08-12T05:15:37.800Z,10.47
2022-08-12T05:18:24.822Z,4.90
2022-08-12T05:20:53.440Z,4.50
2022-08-12T05:23:22.249Z,10.97
2022-08-12T05:25:51.322Z,8.53
2022-08-12T05:28:18.660Z,6.70
2022-08-12T05:30:46.708Z,5.97
2022-08-12T05:33:15.854Z,8.87
2022-08-12T05:35:45.369Z,4.77
2022-08-12T05:38:33.197Z,5.53
2022-08-12T05:41:01.411Z,6.73
2022-08-12T05:43:29.039Z,5.63
2022-08-12T05:45:56.014Z,5.63
2022-08-12T05:48:23.422Z,6.33
2022-08-12T05:50:52.656Z,9.17
2022-08-12T05:53:19.968Z,11.43
2022-08-12T05:55:46.912Z,5.83
2022-08-12T05:58:13.798Z,7.83
2022-08-12T06:00:42.419Z,5.97
2022-08-12T06:03:09.379Z,5.37
2022-08-12T06:05:51.978Z,6.17
2022-08-12T06:08:22.999Z,5.83
2022-08-12T06:10:50.444Z,9.63
2022-08-12T06:13:27.898Z,5.30
2022-08-12T06:16:09.902Z,5.13
2022-08-12T06:18:40.822Z,3.63
2022-08-12T06:21:09.485Z,6.37
2022-08-12T06:23:42.442Z,7.13
2022-08-12T06:26:11.709Z,9.23
2022-08-12T06:28:39.580Z,11.10
2022-08-12T06:31:25.184Z,6.73
2022-08-12T06:33:59.791Z,4.70
2022-08-12T06:36:40.798Z,5.20
2022-08-12T06:39:14.782Z,5.10
2022-08-12T06:42:22.685Z,7.20
2022-08-12T06:44:50.459Z,5.27
2022-08-12T06:47:19.714Z,5.27
2022-08-12T06:49:49.611Z,4.87
2022-08-12T06:52:43.965Z,6.63
2022-08-12T06:55:20.216Z,4.90
2022-08-12T06:58:18.927Z,3.83
2022-08-12T07:00:47.594Z,5.33
2022-08-12T07:03:22.805Z,6.03
2022-08-12T07:05:50.896Z,4.90
2022-08-12T07:08:18.608Z,5.30
2022-08-12T07:10:59.367Z,4.77
2022-08-12T07:13:32.583Z,4.47
2022-08-12T07:15:59.626Z,8.23
2022-08-12T07:18:37.112Z,4.60
2022-08-12T07:21:06.350Z,4.40
2022-08-12T07:23:35.624Z,4.50
2022-08-12T07:26:08.163Z,6.97
2022-08-12T07:28:50.430Z,5.37
2022-08-12T07:31:26.958Z,6.30
2022-08-12T07:33:56.748Z,4.40
2022-08-12T07:36:27.439Z,4.63
2022-08-12T07:39:01.178Z,4.73
2022-08-12T07:41:31.663Z,5.50
2022-08-12T07:44:11.494Z,4.90
2022-08-12T07:47:00.221Z,7.10
2022-08-12T07:49:28.207Z,3.70
2022-08-12T07:54:25.567Z,7.22
2022-08-12T07:56:53.080Z,3.95
2022-08-12T07:59:20.047Z,5.28
2022-08-12T08:02:03.599Z,4.47
2022-08-12T08:05:03.949Z,3.42
2022-08-12T08:07:31.199Z,5.22
2022-08-12T08:10:03.914Z,3.78
2022-08-12T08:13:08.412Z,3.10
2022-08-12T08:18:26.294Z,4.15
2022-08-12T08:20:56.964Z,4.82
2022-08-12T08:23:46.485Z,3.58
2022-08-12T08:26:24.874Z,4.88
2022-08-12T08:28:52.937Z,3.17
2022-08-12T08:31:22.300Z,3.80
2022-08-12T08:34:04.833Z,4.93
2022-08-12T08:36:54.368Z,4.50
2022-08-12T08:39:27.374Z,5.40
2022-08-12T08:42:18.641Z,4.30
2022-08-12T08:45:01.385Z,3.25
2022-08-12T08:47:28.267Z,3.85
2022-08-12T08:50:01.053Z,4.35
2022-08-12T08:52:38.888Z,4.05
2022-08-12T08:55:13.965Z,3.85
2022-08-12T08:58:08.985Z,3.83
2022-08-12T09:00:39.889Z,5.47
2022-08-12T09:04:21.545Z,3.25
2022-08-12T09:06:06.844Z,3.75
2022-08-12T09:17:57.172Z,4.35
2022-08-12T09:20:29.797Z,4.03
2022-08-12T09:23:57.479Z,4.20
2022-08-12T09:26:04.484Z,9.63
2022-08-12T09:28:38.057Z,6.25
2022-08-12T09:34:26.846Z,4.38
2022-08-12T09:37:00.103Z,6.05
2022-08-12T09:41:03.835Z,4.20
2022-08-12T09:43:24.970Z,4.60
2022-08-12T09:46:22.118Z,4.50
2022-08-12T09:49:16.531Z,4.53
2022-08-12T09:52:13.272Z,6.60
2022-08-12T09:54:48.234Z,6.10
2022-08-12T09:58:46.680Z,4.82
2022-08-12T10:00:19.569Z,5.80
2022-08-12T10:07:41.774Z,6.80
2022-08-12T10:10:22.590Z,6.10
2022-08-12T10:13:35.082Z,10.93
2022-08-12T10:16:45.171Z,5.72
2022-08-12T10:19:54.869Z,6.95
2022-08-12T10:22:36.875Z,6.78
2022-08-12T10:30:11.933Z,5.75
2022-08-12T10:32:42.908Z,6.45
2022-08-12T10:35:37.838Z,6.68
2022-08-12T10:38:38.528Z,6.30
2022-08-12T10:41:19.161Z,6.38
2022-08-12T10:43:54.326Z,6.55
2022-08-12T10:46:30.979Z,5.22
2022-08-12T10:49:06.340Z,6.75
2022-08-12T10:52:33.367Z,6.55
2022-08-12T10:54:40.241Z,6.32
2022-08-12T10:57:09.148Z,7.15
2022-08-12T11:00:32.505Z,7.88
2022-08-12T11:04:23.836Z,7.82
2022-08-12T11:07:03.642Z,6.90
2022-08-12T11:08:37.849Z,9.18
2022-08-12T11:11:13.408Z,9.02
2022-08-12T11:13:46.731Z,6.28
2022-08-12T11:17:34.711Z,8.30
2022-08-12T11:19:49.795Z,8.07
2022-08-12T11:22:24.022Z,7.20
2022-08-12T11:27:40.089Z,6.63
2022-08-12T11:32:47.192Z,7.60
2022-08-12T11:35:14.456Z,8.60
2022-08-12T11:40:36.780Z,6.90
2022-08-12T11:43:25.821Z,6.38
2022-08-12T11:45:58.245Z,10.35
2022-08-12T11:48:26.889Z,8.43
2022-08-12T11:50:54.999Z,11.05
2022-08-12T11:53:59.470Z,8.68
2022-08-12T11:56:11.452Z,8.82
2022-08-12T12:04:57.819Z,13.18
2022-08-12T12:08:36.363Z,7.30
2022-08-12T12:10:23.694Z,8.20
2022-08-12T12:26:35.593Z,7.93
2022-08-12T12:30:19.517Z,7.93
2022-08-12T12:32:53.317Z,8.18
2022-08-12T12:36:17.068Z,11.23
2022-08-12T12:38:51.156Z,11.25
2022-08-12T13:14:12.862Z,7.05
2022-08-12T13:17:21.390Z,7.75
2022-08-12T13:19:49.918Z,7.90
2022-08-12T13:22:21.055Z,7.18
2022-08-12T13:24:56.241Z,6.75
2022-08-12T13:31:22.274Z,7.43
2022-08-12T13:37:01.790Z,8.18
2022-08-12T13:39:42.481Z,9.15
2022-08-12T13:42:45.045Z,8.25
2022-08-12T13:45:13.639Z,10.27
2022-08-12T13:48:14.748Z,9.75
2022-08-12T13:50:46.863Z,8.77
2022-08-12T13:53:54.807Z,9.15
2022-08-12T13:56:18.964Z,10.38
2022-08-12T13:59:26.949Z,10.05
2022-08-12T14:02:29.078Z,9.63
2022-08-12T14:05:02.903Z,8.63
2022-08-12T14:10:50.690Z,11.43
2022-08-12T14:14:05.885Z,9.68
2022-08-12T14:16:14.409Z,9.18
2022-08-12T14:18:44.763Z,11.05
2022-08-12T14:21:18.177Z,9.20
2022-08-12T14:24:05.541Z,11.55
2022-08-12T14:29:56.112Z,10.52
2022-08-12T14:32:17.772Z,9.25
2022-08-12T14:34:47.237Z,8.93
2022-08-12T14:37:57.744Z,8.38
2022-08-12T14:43:08.124Z,10.07
2022-08-12T14:56:26.242Z,10.45
2022-08-12T14:57:20.361Z,8.88
2022-08-12T15:00:10.254Z,8.88
2022-08-12T15:02:40.145Z,10.85
2022-08-12T15:05:08.207Z,11.52
2022-08-12T15:07:50.068Z,8.30
2022-08-12T15:10:34.294Z,8.85
2022-08-12T15:13:11.634Z,9.93
2022-08-12T15:16:06.020Z,8.95
2022-08-12T15:18:34.767Z,9.05
2022-08-12T15:21:05.468Z,11.88
2022-08-12T15:23:45.682Z,9.18
2022-08-12T15:26:38.966Z,8.15
2022-08-12T15:29:22.894Z,10.82
2022-08-12T15:31:59.809Z,9.15
2022-08-12T15:34:33.443Z,8.90
2022-08-12T15:40:00.851Z,10.30
2022-08-12T15:42:35.147Z,11.93
2022-08-12T15:45:02.540Z,11.27
2022-08-12T15:47:49.911Z,12.65
2022-08-12T15:50:22.999Z,14.50
2022-08-12T15:52:54.570Z,13.90
2022-08-12T15:55:46.159Z,14.27
2022-08-12T15:58:16.738Z,15.48
2022-08-12T16:00:43.993Z,13.88
2022-08-12T16:03:14.190Z,14.95
2022-08-12T16:06:11.951Z,14.05
2022-08-12T16:08:41.528Z,27.30
2022-08-12T16:11:14.968Z,12.97
2022-08-12T16:13:45.508Z,13.07
2022-08-12T16:16:22.651Z,13.53
2022-08-12T16:18:56.360Z,12.43
2022-08-12T16:21:51.847Z,11.90
2022-08-12T16:24:25.161Z,14.40
2022-08-12T16:26:54.191Z,11.20
2022-08-12T16:29:38.544Z,12.50
2022-08-12T16:32:23.188Z,13.40
2022-08-12T16:34:55.631Z,11.00
2022-08-12T16:38:04.888Z,10.43
2022-08-12T16:40:12.101Z,13.60
2022-08-12T16:42:42.227Z,19.27
2022-08-12T16:46:23.861Z,15.67
2022-08-12T16:48:35.209Z,13.30
2022-08-12T16:51:11.835Z,12.50
2022-08-12T16:53:43.418Z,13.20
2022-08-12T16:56:14.767Z,14.00
2022-08-12T17:01:36.731Z,12.03
2022-08-12T17:04:09.139Z,13.80
2022-08-12T17:06:52.774Z,13.53
2022-08-12T17:09:20.060Z,13.63
2022-08-12T17:11:49.751Z,14.40
2022-08-12T17:14:23.131Z,14.77
2022-08-12T17:20:37.515Z,11.77
2022-08-12T17:23:33.396Z,12.03
2022-08-12T17:26:16.313Z,15.07
2022-08-12T17:28:52.202Z,13.80
2022-08-12T17:31:59.821Z,14.53
2022-08-12T17:34:17.056Z,14.60
2022-08-12T17:36:44.671Z,13.40
2022-08-12T17:39:15.646Z,13.37
2022-08-12T17:41:55.785Z,14.43
2022-08-12T17:44:24.077Z,15.63
2022-08-12T17:46:53.795Z,16.63
2022-08-12T17:50:02.191Z,16.30
2022-08-12T17:52:10.071Z,18.10
2022-08-12T17:54:37.728Z,18.53
2022-08-12T17:57:16.017Z,16.43
2022-08-12T17:59:49.008Z,17.07
2022-08-12T18:02:17.897Z,19.23
2022-08-12T18:05:04.759Z,16.70
2022-08-12T18:07:39.194Z,18.40
2022-08-12T18:10:06.949Z,18.93
2022-08-12T18:12:52.332Z,21.33
2022-08-12T18:15:47.764Z,18.27
2022-08-12T18:18:16.699Z,23.20
2022-08-12T18:20:45.169Z,18.40
2022-08-12T18:23:12.376Z,20.03
2022-08-12T18:26:16.605Z,20.03
2022-08-12T18:28:48.356Z,20.67
2022-08-12T18:31:18.060Z,21.13
2022-08-12T18:33:46.433Z,18.77
2022-08-12T18:36:14.107Z,18.13
2022-08-12T18:38:44.851Z,20.73
2022-08-12T18:41:33.678Z,20.03
2022-08-12T18:44:06.867Z,19.83
2022-08-12T18:46:54.090Z,21.67
2022-08-12T18:49:39.257Z,21.03
2022-08-12T18:52:08.634Z,21.13
2022-08-12T18:54:52.937Z,22.87
2022-08-12T18:57:45.586Z,22.23
2022-08-12T19:00:22.173Z,20.80
2022-08-12T19:02:53.372Z,20.73
2022-08-12T19:05:20.855Z,22.03
2022-08-12T19:08:00.708Z,21.37
2022-08-12T19:10:30.714Z,22.03
2022-08-12T19:13:23.216Z,21.77
2022-08-12T19:15:53.577Z,23.40
2022-08-12T19:18:22.333Z,22.37
2022-08-12T19:20:50.730Z,20.67
2022-08-12T19:23:21.509Z,22.30
2022-08-12T19:25:55.439Z,22.23
2022-08-12T19:28:30.110Z,21.27
2022-08-12T19:31:55.682Z,22.10
2022-08-12T19:37:22.658Z,23.50
2022-08-12T19:40:10.248Z,22.80
2022-08-12T19:42:53.717Z,23.90
2022-08-12T19:45:43.426Z,22.77
2022-08-12T19:48:17.477Z,22.33
2022-08-12T19:50:49.815Z,26.17
2022-08-12T19:53:18.649Z,21.33
2022-08-12T19:55:51.782Z,21.67
2022-08-12T19:58:20.418Z,25.87
2022-08-12T20:00:53.542Z,24.77
2022-08-12T20:03:38.252Z,18.03
2022-08-12T20:06:18.243Z,21.23
2022-08-12T20:08:56.735Z,18.17
2022-08-12T20:12:10.131Z,23.23
2022-08-12T20:14:18.573Z,18.90
2022-08-12T20:16:52.902Z,22.27
2022-08-12T20:19:28.580Z,22.90
2022-08-12T20:22:23.504Z,19.27
2022-08-12T20:24:55.351Z,20.60
2022-08-12T20:27:29.755Z,21.10
2022-08-12T20:30:14.148Z,23.67
2022-08-12T20:32:58.571Z,20.93
2022-08-12T20:35:39.111Z,20.47
2022-08-12T20:38:26.993Z,19.07
2022-08-12T20:40:55.734Z,21.30
2022-08-12T20:43:27.981Z,21.93
2022-08-12T20:45:57.951Z,22.13
2022-08-12T20:48:28.767Z,21.20
2022-08-12T20:50:57.981Z,22.60
2022-08-12T20:53:57.823Z,21.60
2022-08-12T20:56:37.833Z,23.47
2022-08-12T20:59:10.468Z,24.23
2022-08-12T21:01:47.449Z,24.07
2022-08-12T21:04:36.655Z,23.13
2022-08-12T21:07:09.356Z,24.63
2022-08-12T21:09:42.106Z,21.77
2022-08-12T21:12:28.178Z,23.07
2022-08-12T21:15:16.921Z,22.03
2022-08-12T21:18:01.185Z,23.80
2022-08-12T21:20:32.689Z,23.93
2022-08-12T21:22:59.652Z,22.13
2022-08-12T21:25:35.903Z,22.63
2022-08-12T21:28:12.473Z,23.73
2022-08-12T21:31:10.749Z,23.20
2022-08-12T21:33:31.573Z,23.77
2022-08-12T21:36:01.004Z,21.60
2022-08-12T21:38:34.583Z,22.33
2022-08-12T21:41:06.974Z,19.27
2022-08-12T21:43:44.862Z,22.10
2022-08-12T21:46:35.245Z,20.47
2022-08-12T21:49:05.203Z,17.13
2022-08-12T21:51:49.025Z,18.23
2022-08-12T21:54:21.885Z,16.63
2022-08-12T21:56:50.555Z,16.90
2022-08-12T21:59:18.105Z,17.77
2022-08-12T22:01:48.449Z,16.97
2022-08-12T22:04:35.851Z,17.20
2022-08-12T22:07:06.209Z,17.20
2022-08-12T22:09:42.734Z,18.07
2022-08-12T22:12:29.532Z,15.97
2022-08-12T22:14:56.515Z,16.23
2022-08-12T22:17:49.907Z,17.83
2022-08-12T22:20:17.634Z,14.20
2022-08-12T22:22:53.915Z,13.87
2022-08-12T22:25:24.339Z,13.33
2022-08-12T22:28:17.401Z,14.60
2022-08-12T22:31:09.832Z,12.33
2022-08-12T22:33:53.952Z,13.67
2022-08-12T22:36:29.189Z,12.37
2022-08-12T22:38:58.115Z,15.87
2022-08-12T22:41:44.844Z,19.80
2022-08-12T22:44:31.654Z,13.70
2022-08-12T22:47:54.230Z,13.57
2022-08-12T22:50:27.960Z,12.60
2022-08-12T22:53:14.701Z,14.70
2022-08-12T22:56:05.691Z,13.90
2022-08-12T22:58:33.715Z,12.97
2022-08-12T23:01:01.799Z,14.97
2022-08-12T23:03:49.336Z,15.97
2022-08-12T23:06:23.779Z,12.67
2022-08-12T23:08:51.581Z,12.93
2022-08-12T23:11:23.625Z,16.87
2022-08-12T23:13:56.932Z,15.87
2022-08-12T23:16:31.071Z,12.83
2022-08-12T23:19:10.392Z,16.00
2022-08-12T23:22:05.322Z,17.13
2022-08-12T23:24:55.788Z,15.17
2022-08-12T23:27:50.718Z,14.93
2022-08-12T23:30:25.142Z,15.13
2022-08-12T23:33:00.032Z,14.53
2022-08-12T23:35:28.420Z,18.47
2022-08-12T23:38:30.144Z,14.23
2022-08-12T23:40:59.758Z,14.40
2022-08-12T23:43:39.238Z,16.60
2022-08-12T23:46:08.691Z,16.17
2022-08-12T23:48:37.685Z,14.07
2022-08-12T23:51:22.230Z,13.87
2022-08-12T23:53:56.232Z,14.87
2022-08-12T23:56:26.570Z,15.17
2022-08-12T23:58:55.268Z,12.80
